createdAt,value
2018-08-25T00:00:17.067Z,20.52
2018-08-25T00:01:53.649Z,20.33
2018-08-25T00:03:29.054Z,20.33
2018-08-25T00:05:04.556Z,20.29
2018-08-25T00:06:40.000Z,20.25
2018-08-25T00:08:15.422Z,20.26
2018-08-25T00:09:50.880Z,20.22
2018-08-25T00:11:26.407Z,20.10
2018-08-25T00:13:01.883Z,20.13
2018-08-25T00:14:37.360Z,20.21
2018-08-25T00:16:12.848Z,20.64
2018-08-25T00:17:48.409Z,20.82
2018-08-25T00:19:23.933Z,20.74
2018-08-25T00:20:59.407Z,20.50
2018-08-25T00:22:34.907Z,20.72
2018-08-25T00:24:10.355Z,20.78
2018-08-25T00:25:45.820Z,21.02
2018-08-25T00:27:21.335Z,20.85
2018-08-25T00:28:56.798Z,20.96
2018-08-25T00:30:37.662Z,20.81
2018-08-25T00:32:13.105Z,20.83
2018-08-25T00:33:48.616Z,20.81
2018-08-25T00:35:24.151Z,20.80
2018-08-25T00:36:59.601Z,20.74
2018-08-25T00:38:35.149Z,20.90
2018-08-25T00:40:10.664Z,20.68
2018-08-25T00:41:46.402Z,20.49
2018-08-25T00:43:21.875Z,20.56
2018-08-25T00:44:57.552Z,20.74
2018-08-25T00:46:33.092Z,21.00
2018-08-25T00:48:08.529Z,21.08
2018-08-25T00:49:44.025Z,20.89
2018-08-25T00:51:19.565Z,20.83
2018-08-25T00:52:55.044Z,20.62
2018-08-25T00:54:30.485Z,20.62
2018-08-25T00:56:06.330Z,20.82
2018-08-25T00:57:41.753Z,20.89
2018-08-25T00:59:17.312Z,20.48
2018-08-25T01:00:53.191Z,20.45
2018-08-25T01:02:28.708Z,20.28
2018-08-25T01:04:04.188Z,20.52
2018-08-25T01:05:39.689Z,20.53
2018-08-25T01:07:15.519Z,20.82
2018-08-25T01:08:51.002Z,20.75
2018-08-25T01:10:26.458Z,21.07
2018-08-25T01:12:01.929Z,20.76
2018-08-25T01:13:37.530Z,20.53
2018-08-25T01:15:13.024Z,20.61
2018-08-25T01:16:48.469Z,20.28
2018-08-25T01:18:24.008Z,20.18
2018-08-25T01:19:59.479Z,20.36
2018-08-25T01:21:35.023Z,20.29
2018-08-25T01:23:10.874Z,20.37
2018-08-25T01:24:46.358Z,20.45
2018-08-25T01:26:21.816Z,20.72
2018-08-25T01:27:57.572Z,20.77
2018-08-25T01:29:33.074Z,20.63
2018-08-25T01:31:08.598Z,20.85
2018-08-25T01:32:44.039Z,20.64
2018-08-25T01:34:19.562Z,20.63
2018-08-25T01:35:55.038Z,20.76
2018-08-25T01:37:30.510Z,20.70
2018-08-25T01:39:08.148Z,20.58
2018-08-25T01:40:43.656Z,20.70
2018-08-25T01:42:20.047Z,20.66
2018-08-25T01:43:56.313Z,20.59
2018-08-25T01:45:31.785Z,20.77
2018-08-25T01:47:07.439Z,20.79
2018-08-25T01:48:42.856Z,20.88
2018-08-25T01:50:18.416Z,20.77
2018-08-25T01:51:53.894Z,20.62
2018-08-25T01:53:29.377Z,20.36
2018-08-25T01:55:05.850Z,20.53
2018-08-25T01:56:41.338Z,20.47
2018-08-25T01:58:23.133Z,20.40
2018-08-25T01:59:58.604Z,20.45
2018-08-25T02:01:34.054Z,20.28
2018-08-25T02:03:09.575Z,20.35
2018-08-25T02:04:45.799Z,20.30
2018-08-25T02:06:21.294Z,20.26
2018-08-25T02:07:57.216Z,20.03
2018-08-25T02:09:32.710Z,19.66
2018-08-25T02:11:08.175Z,19.85
2018-08-25T02:12:44.356Z,19.97
2018-08-25T02:14:19.809Z,19.85
2018-08-25T02:15:59.170Z,19.70
2018-08-25T02:17:35.520Z,19.60
2018-08-25T02:19:10.981Z,19.64
2018-08-25T02:20:46.444Z,19.51
2018-08-25T02:22:22.262Z,19.45
2018-08-25T02:23:58.201Z,19.43
2018-08-25T02:25:33.656Z,19.51
2018-08-25T02:27:09.746Z,19.45
2018-08-25T02:28:45.305Z,19.53
2018-08-25T02:30:20.776Z,19.54
2018-08-25T02:31:56.253Z,19.61
2018-08-25T02:33:32.225Z,19.65
2018-08-25T02:35:07.736Z,19.61
2018-08-25T02:36:43.430Z,19.90
2018-08-25T02:38:19.647Z,19.87
2018-08-25T02:39:55.496Z,20.00
2018-08-25T02:41:31.034Z,20.43
2018-08-25T02:43:06.512Z,20.35
2018-08-25T02:44:42.698Z,20.23
2018-08-25T02:46:18.188Z,20.12
2018-08-25T02:47:54.736Z,19.94
2018-08-25T02:49:30.268Z,20.01
2018-08-25T02:51:05.783Z,20.12
2018-08-25T02:52:42.351Z,20.34
2018-08-25T02:54:17.805Z,20.36
2018-08-25T02:55:53.283Z,20.24
2018-08-25T02:57:28.777Z,20.25
2018-08-25T02:59:04.378Z,20.46
2018-08-25T03:00:39.930Z,20.32
2018-08-25T03:02:15.405Z,20.45
2018-08-25T03:03:50.919Z,20.54
2018-08-25T03:05:26.400Z,20.25
2018-08-25T03:07:02.018Z,20.16
2018-08-25T03:08:37.465Z,20.21
2018-08-25T03:10:13.415Z,20.23
2018-08-25T03:11:48.898Z,20.05
2018-08-25T03:13:24.366Z,19.94
2018-08-25T03:14:59.805Z,19.82
2018-08-25T03:16:35.372Z,20.02
2018-08-25T03:18:10.845Z,19.91
2018-08-25T03:19:46.737Z,19.73
2018-08-25T03:21:22.218Z,19.69
2018-08-25T03:22:57.677Z,19.75
2018-08-25T03:24:33.134Z,19.51
2018-08-25T03:26:08.650Z,19.53
2018-08-25T03:27:44.157Z,19.51
2018-08-25T03:29:19.643Z,19.37
2018-08-25T03:30:55.646Z,19.35
2018-08-25T03:32:31.336Z,19.10
2018-08-25T03:34:06.928Z,19.08
2018-08-25T03:35:42.526Z,19.27
2018-08-25T03:37:17.980Z,19.36
2018-08-25T03:38:53.526Z,19.33
2018-08-25T03:40:28.964Z,19.33
2018-08-25T03:42:04.477Z,19.01
2018-08-25T03:43:39.913Z,18.63
2018-08-25T03:45:15.428Z,18.61
2018-08-25T03:46:50.906Z,18.76
2018-08-25T03:48:26.400Z,18.91
2018-08-25T03:50:01.905Z,18.84
2018-08-25T03:51:37.709Z,18.78
2018-08-25T03:53:13.205Z,18.76
2018-08-25T03:54:48.744Z,18.85
2018-08-25T03:56:24.208Z,18.71
2018-08-25T03:57:59.666Z,18.52
2018-08-25T03:59:35.752Z,18.79
2018-08-25T04:01:11.561Z,18.76
2018-08-25T04:02:47.184Z,18.65
2018-08-25T04:04:22.650Z,18.70
2018-08-25T04:05:58.836Z,18.59
2018-08-25T04:07:34.678Z,18.58
2018-08-25T04:09:12.202Z,18.41
2018-08-25T04:10:47.645Z,18.23
2018-08-25T04:12:23.133Z,18.65
2018-08-25T04:13:58.608Z,18.30
2018-08-25T04:15:35.095Z,18.56
2018-08-25T04:17:11.287Z,18.72
2018-08-25T04:18:46.889Z,18.76
2018-08-25T04:20:22.324Z,18.90
2018-08-25T04:21:57.773Z,18.95
2018-08-25T04:23:33.276Z,18.97
2018-08-25T04:25:08.777Z,19.06
2018-08-25T04:26:44.212Z,18.78
2018-08-25T04:28:19.721Z,18.74
2018-08-25T04:29:56.010Z,18.77
2018-08-25T04:31:31.486Z,18.65
2018-08-25T04:33:06.985Z,18.41
2018-08-25T04:34:42.484Z,18.30
2018-08-25T04:36:18.061Z,18.40
2018-08-25T04:37:53.535Z,18.48
2018-08-25T04:39:29.053Z,18.53
2018-08-25T04:41:04.548Z,18.48
2018-08-25T04:42:39.951Z,18.35
2018-08-25T04:44:15.461Z,18.44
2018-08-25T04:45:50.937Z,18.54
2018-08-25T04:47:26.428Z,18.50
2018-08-25T04:49:01.968Z,18.62
2018-08-25T04:50:37.425Z,18.61
2018-08-25T04:52:12.885Z,18.72
2018-08-25T04:53:48.407Z,18.68
2018-08-25T04:55:23.884Z,18.77
2018-08-25T04:56:59.364Z,18.82
2018-08-25T04:58:34.833Z,18.90
2018-08-25T05:00:10.323Z,18.94
2018-08-25T05:01:45.887Z,18.80
2018-08-25T05:03:21.330Z,18.87
2018-08-25T05:04:56.839Z,18.87
2018-08-25T05:06:32.291Z,18.85
2018-08-25T05:08:09.028Z,18.85
2018-08-25T05:09:44.565Z,18.67
2018-08-25T05:11:20.012Z,18.67
2018-08-25T05:12:55.468Z,18.73
2018-08-25T05:14:30.925Z,18.63
2018-08-25T05:16:06.369Z,18.52
2018-08-25T05:17:41.822Z,18.65
2018-08-25T05:19:17.318Z,18.76
2018-08-25T05:20:52.879Z,18.72
2018-08-25T05:22:28.436Z,18.77
2018-08-25T05:24:04.361Z,18.91
2018-08-25T05:25:39.826Z,18.80
2018-08-25T05:27:15.293Z,18.97
2018-08-25T05:28:50.910Z,19.03
2018-08-25T05:30:26.396Z,19.17
2018-08-25T05:32:01.850Z,19.29
2018-08-25T05:33:37.367Z,19.07
2018-08-25T05:35:12.843Z,19.00
2018-08-25T05:36:48.342Z,18.99
2018-08-25T05:38:23.828Z,18.91
2018-08-25T05:39:59.277Z,19.04
2018-08-25T05:41:34.782Z,18.89
2018-08-25T05:43:10.245Z,18.83
2018-08-25T05:44:45.710Z,18.79
2018-08-25T05:46:21.295Z,18.90
2018-08-25T05:47:56.825Z,18.94
2018-08-25T05:49:32.262Z,18.75
2018-08-25T05:51:07.728Z,19.13
2018-08-25T05:52:43.162Z,19.25
2018-08-25T05:54:18.676Z,19.18
2018-08-25T05:55:54.198Z,19.27
2018-08-25T05:57:29.709Z,19.34
2018-08-25T05:59:05.178Z,19.81
2018-08-25T06:00:40.629Z,20.08
2018-08-25T06:02:16.120Z,20.09
2018-08-25T06:03:54.756Z,20.18
2018-08-25T06:05:30.237Z,19.68
2018-08-25T06:07:05.704Z,19.81
2018-08-25T06:08:41.192Z,19.70
2018-08-25T06:10:16.666Z,19.73
2018-08-25T06:11:54.828Z,19.37
2018-08-25T06:13:30.335Z,19.33
2018-08-25T06:15:06.079Z,19.26
2018-08-25T06:16:41.528Z,19.48
2018-08-25T06:18:17.001Z,19.54
2018-08-25T06:19:52.760Z,19.63
2018-08-25T06:21:28.261Z,19.44
2018-08-25T06:23:03.765Z,19.47
2018-08-25T06:24:39.284Z,19.70
2018-08-25T06:26:14.781Z,19.47
2018-08-25T06:27:50.359Z,19.29
2018-08-25T06:29:26.880Z,19.42
2018-08-25T06:31:02.511Z,19.18
2018-08-25T06:32:37.984Z,19.25
2018-08-25T06:34:13.496Z,19.27
2018-08-25T06:35:49.024Z,19.43
2018-08-25T06:37:24.496Z,19.63
2018-08-25T06:39:00.161Z,19.78
2018-08-25T06:40:35.664Z,19.92
2018-08-25T06:42:11.303Z,20.15
2018-08-25T06:43:46.809Z,20.12
2018-08-25T06:45:22.441Z,20.27
2018-08-25T06:46:57.957Z,20.47
2018-08-25T06:48:33.778Z,20.43
2018-08-25T06:50:09.257Z,20.61
2018-08-25T06:51:44.724Z,21.77
2018-08-25T06:53:20.320Z,21.76
2018-08-25T06:54:56.664Z,21.70
2018-08-25T06:56:32.518Z,21.79
2018-08-25T06:58:08.036Z,21.40
2018-08-25T06:59:43.533Z,21.42
2018-08-25T07:01:19.005Z,21.45
2018-08-25T07:02:54.522Z,21.58
2018-08-25T07:04:29.998Z,21.70
2018-08-25T07:06:05.565Z,21.77
2018-08-25T07:07:41.079Z,21.58
2018-08-25T07:09:16.554Z,21.50
2018-08-25T07:10:52.054Z,21.61
2018-08-25T07:12:27.515Z,21.21
2018-08-25T07:14:03.008Z,21.33
2018-08-25T07:15:38.505Z,21.25
2018-08-25T07:17:13.995Z,21.47
2018-08-25T07:18:49.806Z,21.49
2018-08-25T07:20:25.424Z,21.24
2018-08-25T07:22:00.883Z,21.51
2018-08-25T07:23:36.988Z,21.70
2018-08-25T07:25:12.461Z,21.75
2018-08-25T07:26:47.920Z,21.98
2018-08-25T07:28:23.441Z,22.10
2018-08-25T07:29:58.955Z,21.77
2018-08-25T07:31:34.492Z,21.74
2018-08-25T07:33:09.927Z,22.18
2018-08-25T07:34:45.417Z,22.36
2018-08-25T07:36:20.846Z,22.44
2018-08-25T07:37:56.349Z,22.73
2018-08-25T07:39:32.409Z,22.31
2018-08-25T07:41:07.898Z,22.63
2018-08-25T07:42:43.389Z,22.56
2018-08-25T07:44:20.362Z,22.95
2018-08-25T07:45:55.884Z,23.18
2018-08-25T07:47:31.387Z,23.03
2018-08-25T07:49:06.842Z,22.81
2018-08-25T07:50:42.321Z,23.01
2018-08-25T07:52:17.825Z,23.14
2018-08-25T07:53:53.769Z,23.28
2018-08-25T07:55:29.454Z,23.20
2018-08-25T07:57:05.764Z,23.02
2018-08-25T07:58:41.549Z,22.71
2018-08-25T08:00:17.101Z,22.91
2018-08-25T08:01:52.551Z,23.13
2018-08-25T08:03:28.025Z,22.77
2018-08-25T08:05:03.536Z,23.03
2018-08-25T08:06:38.992Z,23.19
2018-08-25T08:08:14.448Z,22.95
2018-08-25T08:09:49.957Z,23.25
2018-08-25T08:11:25.417Z,23.41
2018-08-25T08:13:00.879Z,23.50
2018-08-25T08:14:36.388Z,23.67
2018-08-25T08:16:12.319Z,23.68
2018-08-25T08:17:47.800Z,23.46
2018-08-25T08:19:23.325Z,23.38
2018-08-25T08:20:58.868Z,23.39
2018-08-25T08:22:34.386Z,23.68
2018-08-25T08:24:09.937Z,23.47
2018-08-25T08:25:45.577Z,23.55
2018-08-25T08:27:21.107Z,23.46
2018-08-25T08:28:56.796Z,23.42
2018-08-25T08:30:32.277Z,23.49
2018-08-25T08:32:14.515Z,23.60
2018-08-25T08:33:50.025Z,23.69
2018-08-25T08:35:25.767Z,23.93
2018-08-25T08:37:01.229Z,23.74
2018-08-25T08:38:38.078Z,24.05
2018-08-25T08:40:13.602Z,23.63
2018-08-25T08:41:49.549Z,23.83
2018-08-25T08:43:26.310Z,23.96
2018-08-25T08:45:01.855Z,23.89
2018-08-25T08:46:37.821Z,23.76
2018-08-25T08:48:13.958Z,23.74
2018-08-25T08:49:49.488Z,23.70
2018-08-25T08:51:25.629Z,23.47
2018-08-25T08:53:01.625Z,23.51
2018-08-25T08:54:37.149Z,24.01
2018-08-25T08:56:12.667Z,24.10
2018-08-25T08:57:48.154Z,24.22
2018-08-25T08:59:23.696Z,24.26
2018-08-25T09:00:59.248Z,24.26
2018-08-25T09:02:34.784Z,24.50
2018-08-25T09:04:10.244Z,24.72
2018-08-25T09:05:45.713Z,24.63
2018-08-25T09:07:21.363Z,24.15
2018-08-25T09:08:56.936Z,24.61
2018-08-25T09:10:32.509Z,24.64
2018-08-25T09:12:07.978Z,25.00
2018-08-25T09:13:43.549Z,24.74
2018-08-25T09:15:19.496Z,24.85
2018-08-25T09:16:54.969Z,24.24
2018-08-25T09:18:30.521Z,24.21
2018-08-25T09:20:06.539Z,23.60
2018-08-25T09:21:42.044Z,24.16
2018-08-25T09:23:17.484Z,24.63
2018-08-25T09:24:52.961Z,24.39
2018-08-25T09:26:28.430Z,24.49
2018-08-25T09:28:03.904Z,24.69
2018-08-25T09:29:40.411Z,24.73
2018-08-25T09:31:16.276Z,24.82
2018-08-25T09:32:51.740Z,24.75
2018-08-25T09:34:27.223Z,24.81
2018-08-25T09:36:03.144Z,24.67
2018-08-25T09:37:38.591Z,24.57
2018-08-25T09:39:14.165Z,24.78
2018-08-25T09:40:49.864Z,25.19
2018-08-25T09:42:25.361Z,25.21
2018-08-25T09:44:00.830Z,24.87
2018-08-25T09:45:36.812Z,24.97
2018-08-25T09:47:12.626Z,25.27
2018-08-25T09:48:48.152Z,25.44
2018-08-25T09:50:23.705Z,25.63
2018-08-25T09:51:59.251Z,25.61
2018-08-25T09:53:35.868Z,24.38
2018-08-25T09:55:11.313Z,24.53
2018-08-25T09:56:46.822Z,24.30
2018-08-25T09:58:22.261Z,24.90
2018-08-25T09:59:58.210Z,25.20
2018-08-25T10:01:37.928Z,25.27
2018-08-25T10:03:13.385Z,25.61
2018-08-25T10:04:50.128Z,25.50
2018-08-25T10:06:25.626Z,25.89
2018-08-25T10:08:01.109Z,25.23
2018-08-25T10:09:36.909Z,25.30
2018-08-25T10:11:12.406Z,25.54
2018-08-25T10:12:47.858Z,25.55
2018-08-25T10:14:23.348Z,25.34
2018-08-25T10:15:58.874Z,24.94
2018-08-25T10:17:34.323Z,25.38
2018-08-25T10:19:09.810Z,24.72
2018-08-25T10:20:45.345Z,25.29
2018-08-25T10:22:22.355Z,25.45
2018-08-25T10:23:57.859Z,25.70
2018-08-25T10:25:33.338Z,25.81
2018-08-25T10:27:08.775Z,25.69
2018-08-25T10:28:44.294Z,25.59
2018-08-25T10:30:19.732Z,25.60
2018-08-25T10:31:55.218Z,25.71
2018-08-25T10:33:30.717Z,25.72
2018-08-25T10:35:06.784Z,25.42
2018-08-25T10:36:42.801Z,25.52
2018-08-25T10:38:18.240Z,25.52
2018-08-25T10:39:53.710Z,24.20
2018-08-25T10:41:29.185Z,24.42
2018-08-25T10:43:04.709Z,24.93
2018-08-25T10:44:40.179Z,24.95
2018-08-25T10:46:16.592Z,25.01
2018-08-25T10:47:53.153Z,24.39
2018-08-25T10:49:28.668Z,24.52
2018-08-25T10:51:04.671Z,24.54
2018-08-25T10:52:40.150Z,24.67
2018-08-25T10:54:15.974Z,24.61
2018-08-25T10:55:52.313Z,24.74
2018-08-25T10:57:27.765Z,24.80
2018-08-25T10:59:04.834Z,24.49
2018-08-25T11:00:40.565Z,24.17
2018-08-25T11:02:24.497Z,24.12
2018-08-25T11:04:00.014Z,23.79
2018-08-25T11:05:35.552Z,23.66
2018-08-25T11:07:12.905Z,23.36
2018-08-25T11:08:48.539Z,23.82
2018-08-25T11:10:23.932Z,24.26
2018-08-25T11:11:59.406Z,24.16
2018-08-25T11:13:34.896Z,24.28
2018-08-25T11:15:10.470Z,23.34
2018-08-25T11:16:45.970Z,23.84
2018-08-25T11:18:21.469Z,24.41
2018-08-25T11:19:56.951Z,24.77
2018-08-25T11:21:32.430Z,24.73
2018-08-25T11:23:08.098Z,24.64
2018-08-25T11:24:43.676Z,24.89
2018-08-25T11:26:19.455Z,24.97
2018-08-25T11:27:55.001Z,25.15
2018-08-25T11:29:31.815Z,25.13
2018-08-25T11:31:09.400Z,24.96
2018-08-25T11:32:44.877Z,25.29
2018-08-25T11:34:20.429Z,24.87
2018-08-25T11:35:56.608Z,25.11
2018-08-25T11:37:32.179Z,25.05
2018-08-25T11:39:10.289Z,25.27
2018-08-25T11:40:45.773Z,25.45
2018-08-25T11:42:21.262Z,25.70
2018-08-25T11:43:57.236Z,25.42
2018-08-25T11:45:33.445Z,25.17
2018-08-25T11:47:13.924Z,25.20
2018-08-25T11:48:49.475Z,25.15
2018-08-25T11:50:26.394Z,24.82
2018-08-25T11:52:01.873Z,24.90
2018-08-25T11:53:37.418Z,24.78
2018-08-25T11:55:12.944Z,25.12
2018-08-25T11:56:48.441Z,25.16
2018-08-25T11:58:24.237Z,25.10
2018-08-25T11:59:59.793Z,25.22
2018-08-25T12:01:35.237Z,24.31
2018-08-25T12:03:10.954Z,23.49
2018-08-25T12:04:46.484Z,24.78
2018-08-25T12:06:22.374Z,25.08
2018-08-25T12:07:58.892Z,25.48
2018-08-25T12:09:34.424Z,25.60
2018-08-25T12:11:10.004Z,25.72
2018-08-25T12:12:45.438Z,25.82
2018-08-25T12:14:20.901Z,25.78
2018-08-25T12:15:58.208Z,25.69
2018-08-25T12:17:33.742Z,25.49
2018-08-25T12:19:09.344Z,25.38
2018-08-25T12:20:44.772Z,25.19
2018-08-25T12:22:20.250Z,25.16
2018-08-25T12:23:55.822Z,24.91
2018-08-25T12:25:31.379Z,25.12
2018-08-25T12:27:07.144Z,25.86
2018-08-25T12:28:42.670Z,25.73
2018-08-25T12:30:18.246Z,25.73
2018-08-25T12:31:53.749Z,24.33
2018-08-25T12:33:29.245Z,25.05
2018-08-25T12:35:07.502Z,25.21
2018-08-25T12:38:25.149Z,24.62
2018-08-25T12:40:01.183Z,24.49
2018-08-25T12:41:38.320Z,24.84
2018-08-25T12:43:13.782Z,25.19
2018-08-25T12:44:49.611Z,25.57
2018-08-25T12:46:25.066Z,25.20
2018-08-25T12:48:00.533Z,25.09
2018-08-25T12:49:37.879Z,25.38
2018-08-25T12:51:13.372Z,25.60
2018-08-25T12:52:49.101Z,25.75
2018-08-25T12:54:24.551Z,25.62
2018-08-25T12:56:00.023Z,25.81
2018-08-25T12:57:35.542Z,24.90
2018-08-25T12:59:11.072Z,24.67
2018-08-25T13:00:46.466Z,25.18
2018-08-25T13:02:21.982Z,24.62
2018-08-25T13:03:57.490Z,24.88
2018-08-25T13:05:32.962Z,24.85
2018-08-25T13:07:08.450Z,24.75
2018-08-25T13:08:43.901Z,24.93
2018-08-25T13:10:19.432Z,24.96
2018-08-25T13:11:54.892Z,24.77
2018-08-25T13:13:30.342Z,25.41
2018-08-25T13:15:07.012Z,25.83
2018-08-25T13:16:42.550Z,25.49
2018-08-25T13:18:18.056Z,24.47
2018-08-25T13:19:53.546Z,24.79
2018-08-25T13:21:29.025Z,25.44
2018-08-25T13:23:04.471Z,25.71
2018-08-25T13:24:39.962Z,25.52
2018-08-25T13:26:15.422Z,25.30
2018-08-25T13:27:50.938Z,25.26
2018-08-25T13:29:26.471Z,25.38
2018-08-25T13:31:02.062Z,25.21
2018-08-25T13:32:37.453Z,25.51
2018-08-25T13:34:14.107Z,25.74
2018-08-25T13:35:49.598Z,25.30
2018-08-25T13:37:25.117Z,25.54
2018-08-25T13:39:00.957Z,25.77
2018-08-25T13:40:37.449Z,25.75
2018-08-25T13:42:13.670Z,25.68
2018-08-25T13:43:49.141Z,25.81
2018-08-25T13:45:24.810Z,25.88
2018-08-25T13:47:00.240Z,25.79
2018-08-25T13:48:35.687Z,25.18
2018-08-25T13:50:11.193Z,24.71
2018-08-25T13:51:46.689Z,25.38
2018-08-25T13:53:22.203Z,25.80
2018-08-25T13:54:57.719Z,26.13
2018-08-25T13:56:33.293Z,26.37
2018-08-25T13:58:08.769Z,25.78
2018-08-25T13:59:44.310Z,25.76
2018-08-25T14:01:19.787Z,25.70
2018-08-25T14:02:55.334Z,25.49
2018-08-25T14:04:30.894Z,25.70
2018-08-25T14:06:06.833Z,25.33
2018-08-25T14:07:42.287Z,25.24
2018-08-25T14:09:17.802Z,24.55
2018-08-25T14:10:53.305Z,25.12
2018-08-25T14:12:29.209Z,25.67
2018-08-25T14:14:04.746Z,25.16
2018-08-25T14:15:40.272Z,24.78
2018-08-25T14:17:15.884Z,25.29
2018-08-25T14:18:52.390Z,25.59
2018-08-25T14:20:27.955Z,25.68
2018-08-25T14:22:03.436Z,25.49
2018-08-25T14:23:38.968Z,25.18
2018-08-25T14:25:14.570Z,25.42
2018-08-25T14:26:50.107Z,25.47
2018-08-25T14:28:25.546Z,25.29
2018-08-25T14:30:01.002Z,24.52
2018-08-25T14:31:36.492Z,24.13
2018-08-25T14:33:12.285Z,24.47
2018-08-25T14:34:49.039Z,24.79
2018-08-25T14:36:24.503Z,24.74
2018-08-25T14:38:00.249Z,24.18
2018-08-25T14:39:35.765Z,24.40
2018-08-25T14:41:11.259Z,24.10
2018-08-25T14:42:46.797Z,24.32
2018-08-25T14:44:22.271Z,24.70
2018-08-25T14:45:57.814Z,24.54
2018-08-25T14:47:33.601Z,24.57
2018-08-25T14:49:09.084Z,24.18
2018-08-25T14:50:44.588Z,24.35
2018-08-25T14:52:20.109Z,24.74
2018-08-25T14:53:55.638Z,25.00
2018-08-25T14:55:31.690Z,24.97
2018-08-25T14:57:07.174Z,24.70
2018-08-25T14:58:42.625Z,23.98
2018-08-25T15:00:18.150Z,23.74
2018-08-25T15:01:53.705Z,24.19
2018-08-25T15:03:29.162Z,24.26
2018-08-25T15:05:05.278Z,23.98
2018-08-25T15:06:40.804Z,24.34
2018-08-25T15:08:16.321Z,24.54
2018-08-25T15:09:51.786Z,24.91
2018-08-25T15:11:27.393Z,25.14
2018-08-25T15:13:03.377Z,25.28
2018-08-25T15:14:38.888Z,25.43
2018-08-25T15:16:19.799Z,24.86
2018-08-25T15:17:58.673Z,24.38
2018-08-25T15:19:34.570Z,24.36
2018-08-25T15:21:10.069Z,24.05
2018-08-25T15:22:46.058Z,24.10
2018-08-25T15:24:21.579Z,24.35
2018-08-25T15:25:58.547Z,24.48
2018-08-25T15:27:34.300Z,24.26
2018-08-25T15:29:09.869Z,23.98
2018-08-25T15:30:47.389Z,24.14
2018-08-25T15:32:23.645Z,24.30
2018-08-25T15:34:00.264Z,23.89
2018-08-25T15:35:36.454Z,23.28
2018-08-25T15:37:12.103Z,23.19
2018-08-25T15:38:47.839Z,23.30
2018-08-25T15:40:23.482Z,23.22
2018-08-25T15:42:00.750Z,23.63
2018-08-25T15:43:36.390Z,23.82
2018-08-25T15:45:12.085Z,23.70
2018-08-25T15:46:48.005Z,23.59
2018-08-25T15:48:23.840Z,24.05
2018-08-25T15:50:00.122Z,24.44
2018-08-25T15:51:35.606Z,24.45
2018-08-25T15:53:11.173Z,24.57
2018-08-25T15:54:46.659Z,24.85
2018-08-25T15:56:22.150Z,24.49
2018-08-25T15:57:57.792Z,24.32
2018-08-25T15:59:33.271Z,24.24
2018-08-25T16:01:08.742Z,24.19
2018-08-25T16:02:44.209Z,23.77
2018-08-25T16:04:19.808Z,23.79
2018-08-25T16:05:55.433Z,23.96
2018-08-25T16:07:32.470Z,23.81
2018-08-25T16:09:23.143Z,24.05
2018-08-25T16:10:58.765Z,24.19
2018-08-25T16:12:34.407Z,24.24
2018-08-25T16:14:09.861Z,24.16
2018-08-25T16:15:47.258Z,24.13
2018-08-25T16:17:22.897Z,23.21
2018-08-25T16:18:58.409Z,23.44
2018-08-25T16:20:33.854Z,23.33
2018-08-25T16:22:11.129Z,23.24
2018-08-25T16:23:46.636Z,22.83
2018-08-25T16:25:22.213Z,22.66
2018-08-25T16:26:57.916Z,22.64
2018-08-25T16:28:34.059Z,22.19
2018-08-25T16:30:09.977Z,21.85
2018-08-25T16:31:45.487Z,21.96
2018-08-25T16:33:21.184Z,21.95
2018-08-25T16:34:56.729Z,22.17
2018-08-25T16:36:32.267Z,21.85
2018-08-25T16:38:08.762Z,21.97
2018-08-25T16:39:44.500Z,22.13
2018-08-25T16:41:20.032Z,21.90
2018-08-25T16:42:55.894Z,21.71
2018-08-25T16:44:31.423Z,21.75
2018-08-25T16:46:08.002Z,21.60
2018-08-25T16:47:43.566Z,21.78
2018-08-25T16:49:19.948Z,21.41
2018-08-25T16:50:55.376Z,21.63
2018-08-25T16:52:30.832Z,21.57
2018-08-25T16:54:07.307Z,21.52
2018-08-25T16:55:42.817Z,21.72
2018-08-25T16:57:18.306Z,21.58
2018-08-25T16:58:54.004Z,21.77
2018-08-25T17:00:29.538Z,21.89
2018-08-25T17:02:05.490Z,21.53
2018-08-25T17:03:41.053Z,21.31
2018-08-25T17:05:16.683Z,21.03
2018-08-25T17:06:53.266Z,21.03
2018-08-25T17:08:28.961Z,21.12
2018-08-25T17:10:04.472Z,21.17
2018-08-25T17:11:40.003Z,21.28
2018-08-25T17:13:15.459Z,21.07
2018-08-25T17:14:51.344Z,21.16
2018-08-25T17:16:27.804Z,21.11
2018-08-25T17:18:03.252Z,21.00
2018-08-25T17:19:38.739Z,21.18
2018-08-25T17:21:15.560Z,21.08
2018-08-25T17:22:51.162Z,20.77
2018-08-25T17:24:26.651Z,20.85
2018-08-25T17:26:02.136Z,20.91
2018-08-25T17:27:37.820Z,20.73
2018-08-25T17:29:19.952Z,20.72
2018-08-25T17:30:55.435Z,21.00
2018-08-25T17:32:30.958Z,20.86
2018-08-25T17:34:07.430Z,20.71
2018-08-25T17:35:42.908Z,20.65
2018-08-25T17:37:18.454Z,20.41
2018-08-25T17:38:54.088Z,20.49
2018-08-25T17:40:29.570Z,20.55
2018-08-25T17:42:05.123Z,20.52
2018-08-25T17:43:40.794Z,20.35
2018-08-25T17:45:16.318Z,20.37
2018-08-25T17:46:52.302Z,20.30
2018-08-25T17:48:27.778Z,20.15
2018-08-25T17:50:03.305Z,20.17
2018-08-25T17:51:38.785Z,20.26
2018-08-25T17:53:14.281Z,20.30
2018-08-25T17:54:50.237Z,20.13
2018-08-25T17:56:26.898Z,20.16
2018-08-25T17:58:03.195Z,19.99
2018-08-25T17:59:39.307Z,19.88
2018-08-25T18:01:15.430Z,19.78
2018-08-25T18:02:51.098Z,19.80
2018-08-25T18:04:26.826Z,19.32
2018-08-25T18:06:02.316Z,19.14
2018-08-25T18:07:37.801Z,19.13
2018-08-25T18:09:13.299Z,19.15
2018-08-25T18:10:49.080Z,19.17
2018-08-25T18:12:24.496Z,19.08
2018-08-25T18:14:00.308Z,19.02
2018-08-25T18:15:35.853Z,19.00
2018-08-25T18:17:11.389Z,18.97
2018-08-25T18:18:46.977Z,18.99
2018-08-25T18:20:23.686Z,18.85
2018-08-25T18:21:59.750Z,18.92
2018-08-25T18:23:37.222Z,18.82
2018-08-25T18:25:12.755Z,18.82
2018-08-25T18:26:48.266Z,18.74
2018-08-25T18:28:23.750Z,18.59
2018-08-25T18:29:59.226Z,18.59
2018-08-25T18:31:35.747Z,18.51
2018-08-25T18:33:11.303Z,18.47
2018-08-25T18:34:46.790Z,18.45
2018-08-25T18:36:22.597Z,18.30
2018-08-25T18:37:58.261Z,18.29
2018-08-25T18:39:33.888Z,18.12
2018-08-25T18:41:09.333Z,18.13
2018-08-25T18:42:45.486Z,17.87
2018-08-25T18:44:20.971Z,17.81
2018-08-25T18:45:56.477Z,17.87
2018-08-25T18:47:32.302Z,17.94
2018-08-25T18:49:07.801Z,17.97
2018-08-25T18:50:43.909Z,17.88
2018-08-25T18:52:20.102Z,17.88
2018-08-25T18:53:55.704Z,17.77
2018-08-25T18:55:31.654Z,17.72
2018-08-25T18:57:07.134Z,17.76
2018-08-25T18:58:43.847Z,17.71
2018-08-25T19:00:19.603Z,17.68
2018-08-25T19:01:55.211Z,17.49
2018-08-25T19:03:30.597Z,17.37
2018-08-25T19:05:08.099Z,17.30
2018-08-25T19:06:44.166Z,17.26
2018-08-25T19:08:19.671Z,17.30
2018-08-25T19:09:55.120Z,17.35
2018-08-25T19:11:30.633Z,17.34
2018-08-25T19:13:06.097Z,17.24
2018-08-25T19:14:41.586Z,17.36
2018-08-25T19:16:17.879Z,17.29
2018-08-25T19:17:53.653Z,17.29
2018-08-25T19:19:29.156Z,17.18
2018-08-25T19:21:04.694Z,17.07
2018-08-25T19:22:40.158Z,17.14
2018-08-25T19:24:15.830Z,17.12
2018-08-25T19:25:51.152Z,17.06
2018-08-25T19:27:27.660Z,17.03
2018-08-25T19:29:03.920Z,16.95
2018-08-25T19:30:39.419Z,16.95
2018-08-25T19:32:15.400Z,16.99
2018-08-25T19:33:50.976Z,16.87
2018-08-25T19:35:26.523Z,16.92
2018-08-25T19:37:01.970Z,16.82
2018-08-25T19:38:37.480Z,16.85
2018-08-25T19:40:12.986Z,16.78
2018-08-25T19:41:48.513Z,16.75
2018-08-25T19:43:24.019Z,16.61
2018-08-25T19:44:59.572Z,16.63
2018-08-25T19:46:35.058Z,16.70
2018-08-25T19:48:11.943Z,16.70
2018-08-25T19:49:49.694Z,16.71
2018-08-25T19:51:25.617Z,16.79
2018-08-25T19:53:01.583Z,16.74
2018-08-25T19:54:37.018Z,16.75
2018-08-25T19:56:12.594Z,16.81
2018-08-25T19:57:48.491Z,16.83
2018-08-25T19:59:24.264Z,16.98
2018-08-25T20:00:59.765Z,16.98
2018-08-25T20:02:35.257Z,16.96
2018-08-25T20:04:10.858Z,16.97
2018-08-25T20:05:46.435Z,16.89
2018-08-25T20:07:21.902Z,16.89
2018-08-25T20:08:57.401Z,17.05
2018-08-25T20:10:33.581Z,17.26
2018-08-25T20:12:09.044Z,17.19
2018-08-25T20:13:44.621Z,17.32
2018-08-25T20:15:21.962Z,17.41
2018-08-25T20:16:57.524Z,17.65
2018-08-25T20:18:33.727Z,17.39
2018-08-25T20:20:09.226Z,17.49
2018-08-25T20:21:44.729Z,17.59
2018-08-25T20:23:20.222Z,17.76
2018-08-25T20:24:55.737Z,17.91
2018-08-25T20:26:31.264Z,17.93
2018-08-25T20:28:06.777Z,17.85
2018-08-25T20:29:42.294Z,17.66
2018-08-25T20:31:17.857Z,17.67
2018-08-25T20:32:53.613Z,17.67
2018-08-25T20:34:29.066Z,17.49